Skip Navigation LinksHome page > Weather > Current weather Skip Navigation Links

Current Weather

Jakutsk, Russia

For information only: do not use for flight planning or navigation.
Latest weather
Observation time Friday, October 20, 2017 1:30 PM JST
Local time Friday, October 20, 2017 1:57 PM JST
Flight conditions Visual Meteorological Conditions
Winds
Wind direction West (280°)
Wind speed 2 mph
Visibility 6.2 mi.
Sky condition
Ceiling unlimited
Cloud layer scattered clouds 2,300 ft.
Temperature 19°F
Dewpoint 9°F
Altimeter 30.30 in.Hg
Precipitation
QF 1:41 AM
Derived measurements
Relative humidity 62%
Wind chill 19°F
Density altitude -2790 ft.
Remarks
No significant changes expected in the next two hours.
METAR UEEE 200430Z 28001MPS 9999 SCT023 M07/M13 Q1026 R23L/490145 NOSIG RMK QFE761

Settings

Location code

InnerDrive.Weather 4.0.6144.1 Release CLR 4.0.30319.36366
Copyright ©2015 Inner Drive Technology. All rights reserved. Portions Copyright ©1986-2015 David Braverman.

Find weather

Site navigation


Skip Navigation Links

Place info

Page info

PayPal - The safer, easier way to pay online!

Return home.

Copyright ©2017 Inner Drive Technology. Purveyors of fine, hand-crafted computer software. Page printed 2017-10-20T04:57:47 UTC.